sensor_id;sensor_type;location;lat;lon;timestamp;P1;durP1;ratioP1;P2;durP2;ratioP2
36651;SDS011;53334;51.976;20.144;2023-01-19T00:02:05;16.58;;;8.25;;
36651;SDS011;53334;51.976;20.144;2023-01-19T00:04:40;12.13;;;7.65;;
36651;SDS011;53334;51.976;20.144;2023-01-19T00:07:16;18.27;;;8.73;;
36651;SDS011;53334;51.976;20.144;2023-01-19T00:09:49;16.35;;;9.05;;
36651;SDS011;53334;51.976;20.144;2023-01-19T00:12:22;16.98;;;8.73;;
36651;SDS011;53334;51.976;20.144;2023-01-19T00:14:56;18.88;;;8.63;;
36651;SDS011;53334;51.976;20.144;2023-01-19T00:17:29;22.02;;;9.48;;
36651;SDS011;53334;51.976;20.144;2023-01-19T00:20:05;16.30;;;8.27;;
36651;SDS011;53334;51.976;20.144;2023-01-19T00:22:39;26.10;;;8.43;;
36651;SDS011;53334;51.976;20.144;2023-01-19T00:25:12;15.88;;;8.70;;
36651;SDS011;53334;51.976;20.144;2023-01-19T00:27:46;18.17;;;8.50;;
36651;SDS011;53334;51.976;20.144;2023-01-19T00:30:21;16.05;;;8.80;;
36651;SDS011;53334;51.976;20.144;2023-01-19T00:32:54;16.25;;;8.98;;
36651;SDS011;53334;51.976;20.144;2023-01-19T00:35:30;11.85;;;7.50;;
36651;SDS011;53334;51.976;20.144;2023-01-19T00:38:03;17.27;;;7.38;;
36651;SDS011;53334;51.976;20.144;2023-01-19T00:40:37;11.95;;;7.80;;
36651;SDS011;53334;51.976;20.144;2023-01-19T00:43:10;16.25;;;8.35;;
36651;SDS011;53334;51.976;20.144;2023-01-19T00:45:44;17.48;;;8.27;;
36651;SDS011;53334;51.976;20.144;2023-01-19T00:48:17;14.57;;;8.30;;
36651;SDS011;53334;51.976;20.144;2023-01-19T00:50:52;13.98;;;7.30;;
36651;SDS011;53334;51.976;20.144;2023-01-19T00:53:25;14.20;;;6.78;;
36651;SDS011;53334;51.976;20.144;2023-01-19T00:56:03;10.68;;;7.13;;
36651;SDS011;53334;51.976;20.144;2023-01-19T01:01:09;13.85;;;7.43;;
36651;SDS011;53334;51.976;20.144;2023-01-19T01:03:43;10.32;;;7.10;;
36651;SDS011;53334;51.976;20.144;2023-01-19T01:06:18;15.57;;;7.10;;
36651;SDS011;53334;51.976;20.144;2023-01-19T01:08:51;16.05;;;7.20;;
36651;SDS011;53334;51.976;20.144;2023-01-19T01:11:24;9.52;;;6.90;;
36651;SDS011;53334;51.976;20.144;2023-01-19T01:13:58;14.73;;;7.13;;
36651;SDS011;53334;51.976;20.144;2023-01-19T01:16:31;14.18;;;7.07;;
36651;SDS011;53334;51.976;20.144;2023-01-19T01:19:05;11.15;;;6.93;;
36651;SDS011;53334;51.976;20.144;2023-01-19T01:21:40;15.50;;;6.85;;
36651;SDS011;53334;51.976;20.144;2023-01-19T01:24:13;14.13;;;7.25;;
36651;SDS011;53334;51.976;20.144;2023-01-19T01:26:47;9.95;;;6.00;;
36651;SDS011;53334;51.976;20.144;2023-01-19T01:29:20;13.35;;;6.50;;
36651;SDS011;53334;51.976;20.144;2023-01-19T01:31:54;9.63;;;6.63;;
36651;SDS011;53334;51.976;20.144;2023-01-19T01:34:27;15.57;;;7.32;;
36651;SDS011;53334;51.976;20.144;2023-01-19T01:37:02;9.30;;;5.78;;
36651;SDS011;53334;51.976;20.144;2023-01-19T01:39:38;11.40;;;6.85;;
36651;SDS011;53334;51.976;20.144;2023-01-19T01:42:13;13.35;;;7.00;;
36651;SDS011;53334;51.976;20.144;2023-01-19T01:44:50;12.88;;;6.88;;
36651;SDS011;53334;51.976;20.144;2023-01-19T01:47:26;10.48;;;6.63;;
36651;SDS011;53334;51.976;20.144;2023-01-19T01:50:06;10.85;;;6.57;;
36651;SDS011;53334;51.976;20.144;2023-01-19T01:52:44;10.65;;;7.05;;
36651;SDS011;53334;51.976;20.144;2023-01-19T01:55:38;11.20;;;6.60;;
36651;SDS011;53334;51.976;20.144;2023-01-19T01:58:17;10.63;;;6.53;;
36651;SDS011;53334;51.976;20.144;2023-01-19T02:00:50;13.90;;;6.18;;
36651;SDS011;53334;51.976;20.144;2023-01-19T02:03:41;13.57;;;6.97;;
36651;SDS011;53334;51.976;20.144;2023-01-19T02:06:14;13.25;;;6.88;;
36651;SDS011;53334;51.976;20.144;2023-01-19T02:08:51;16.02;;;6.93;;
36651;SDS011;53334;51.976;20.144;2023-01-19T02:11:45;17.58;;;7.95;;
36651;SDS011;53334;51.976;20.144;2023-01-19T02:14:36;11.35;;;7.15;;
36651;SDS011;53334;51.976;20.144;2023-01-19T02:17:10;17.60;;;6.90;;
36651;SDS011;53334;51.976;20.144;2023-01-19T02:19:43;9.60;;;6.45;;
36651;SDS011;53334;51.976;20.144;2023-01-19T02:22:17;12.50;;;6.47;;
36651;SDS011;53334;51.976;20.144;2023-01-19T02:24:57;13.68;;;6.60;;
36651;SDS011;53334;51.976;20.144;2023-01-19T02:27:31;12.95;;;6.68;;
36651;SDS011;53334;51.976;20.144;2023-01-19T02:30:07;13.35;;;7.00;;
36651;SDS011;53334;51.976;20.144;2023-01-19T02:32:42;9.43;;;5.93;;
36651;SDS011;53334;51.976;20.144;2023-01-19T02:35:19;13.48;;;6.25;;
36651;SDS011;53334;51.976;20.144;2023-01-19T02:37:53;12.93;;;6.25;;
36651;SDS011;53334;51.976;20.144;2023-01-19T02:43:02;11.95;;;6.32;;
36651;SDS011;53334;51.976;20.144;2023-01-19T02:45:39;12.77;;;6.20;;
36651;SDS011;53334;51.976;20.144;2023-01-19T02:48:13;13.32;;;6.50;;
36651;SDS011;53334;51.976;20.144;2023-01-19T02:50:49;11.82;;;7.10;;
36651;SDS011;53334;51.976;20.144;2023-01-19T02:56:40;12.90;;;6.88;;
36651;SDS011;53334;51.976;20.144;2023-01-19T02:59:26;11.60;;;6.40;;
36651;SDS011;53334;51.976;20.144;2023-01-19T03:02:11;14.55;;;7.00;;
36651;SDS011;53334;51.976;20.144;2023-01-19T03:07:42;11.93;;;7.25;;
36651;SDS011;53334;51.976;20.144;2023-01-19T03:10:25;14.63;;;6.82;;
36651;SDS011;53334;51.976;20.144;2023-01-19T03:13:06;16.58;;;7.57;;
36651;SDS011;53334;51.976;20.144;2023-01-19T03:15:46;15.40;;;7.10;;
36651;SDS011;53334;51.976;20.144;2023-01-19T03:18:24;12.50;;;7.25;;
36651;SDS011;53334;51.976;20.144;2023-01-19T03:21:03;14.00;;;7.00;;
36651;SDS011;53334;51.976;20.144;2023-01-19T03:23:39;12.23;;;6.47;;
36651;SDS011;53334;51.976;20.144;2023-01-19T03:26:16;14.05;;;7.32;;
36651;SDS011;53334;51.976;20.144;2023-01-19T03:28:52;12.73;;;6.78;;
36651;SDS011;53334;51.976;20.144;2023-01-19T03:31:27;10.90;;;6.60;;
36651;SDS011;53334;51.976;20.144;2023-01-19T03:34:04;11.88;;;6.43;;
36651;SDS011;53334;51.976;20.144;2023-01-19T03:36:41;11.90;;;6.13;;
36651;SDS011;53334;51.976;20.144;2023-01-19T03:39:19;13.93;;;6.45;;
36651;SDS011;53334;51.976;20.144;2023-01-19T03:41:56;13.10;;;6.85;;
36651;SDS011;53334;51.976;20.144;2023-01-19T03:44:33;14.40;;;7.00;;
36651;SDS011;53334;51.976;20.144;2023-01-19T03:47:09;13.98;;;6.65;;
36651;SDS011;53334;51.976;20.144;2023-01-19T03:49:45;13.35;;;7.22;;
36651;SDS011;53334;51.976;20.144;2023-01-19T03:52:26;12.10;;;6.97;;
36651;SDS011;53334;51.976;20.144;2023-01-19T03:55:00;11.70;;;7.05;;
36651;SDS011;53334;51.976;20.144;2023-01-19T03:57:35;20.67;;;7.03;;
36651;SDS011;53334;51.976;20.144;2023-01-19T04:00:11;13.43;;;6.50;;
36651;SDS011;53334;51.976;20.144;2023-01-19T04:02:46;12.60;;;7.03;;
36651;SDS011;53334;51.976;20.144;2023-01-19T04:05:19;9.25;;;5.63;;
36651;SDS011;53334;51.976;20.144;2023-01-19T04:07:52;15.00;;;6.93;;
36651;SDS011;53334;51.976;20.144;2023-01-19T04:10:26;13.85;;;7.00;;
36651;SDS011;53334;51.976;20.144;2023-01-19T04:12:59;14.75;;;6.63;;
36651;SDS011;53334;51.976;20.144;2023-01-19T04:15:35;15.23;;;6.65;;
36651;SDS011;53334;51.976;20.144;2023-01-19T04:18:09;13.73;;;6.45;;
36651;SDS011;53334;51.976;20.144;2023-01-19T04:20:42;14.32;;;6.10;;
36651;SDS011;53334;51.976;20.144;2023-01-19T04:23:15;13.63;;;6.32;;
36651;SDS011;53334;51.976;20.144;2023-01-19T04:25:49;11.80;;;6.28;;
36651;SDS011;53334;51.976;20.144;2023-01-19T04:28:22;12.65;;;5.90;;
36651;SDS011;53334;51.976;20.144;2023-01-19T04:30:57;14.63;;;6.63;;
36651;SDS011;53334;51.976;20.144;2023-01-19T04:33:30;12.43;;;6.20;;
36651;SDS011;53334;51.976;20.144;2023-01-19T04:36:04;17.88;;;6.93;;
36651;SDS011;53334;51.976;20.144;2023-01-19T04:38:38;12.32;;;6.45;;
36651;SDS011;53334;51.976;20.144;2023-01-19T04:41:12;11.70;;;6.13;;
36651;SDS011;53334;51.976;20.144;2023-01-19T04:43:45;11.85;;;5.63;;
36651;SDS011;53334;51.976;20.144;2023-01-19T04:46:20;12.80;;;6.85;;
36651;SDS011;53334;51.976;20.144;2023-01-19T04:48:53;13.43;;;6.57;;
36651;SDS011;53334;51.976;20.144;2023-01-19T04:51:27;12.02;;;6.80;;
36651;SDS011;53334;51.976;20.144;2023-01-19T04:54:00;11.57;;;6.07;;
36651;SDS011;53334;51.976;20.144;2023-01-19T04:56:34;10.10;;;5.93;;
36651;SDS011;53334;51.976;20.144;2023-01-19T04:59:08;12.30;;;6.50;;
36651;SDS011;53334;51.976;20.144;2023-01-19T05:01:43;17.63;;;6.43;;
36651;SDS011;53334;51.976;20.144;2023-01-19T05:04:16;12.25;;;6.43;;
36651;SDS011;53334;51.976;20.144;2023-01-19T05:06:50;7.70;;;5.47;;
36651;SDS011;53334;51.976;20.144;2023-01-19T05:09:24;22.25;;;7.53;;
36651;SDS011;53334;51.976;20.144;2023-01-19T05:11:58;17.38;;;6.57;;
36651;SDS011;53334;51.976;20.144;2023-01-19T05:14:31;13.52;;;5.72;;
36651;SDS011;53334;51.976;20.144;2023-01-19T05:17:06;14.55;;;6.85;;
36651;SDS011;53334;51.976;20.144;2023-01-19T05:19:39;14.45;;;6.30;;
36651;SDS011;53334;51.976;20.144;2023-01-19T05:22:13;16.58;;;6.68;;
36651;SDS011;53334;51.976;20.144;2023-01-19T05:24:46;13.43;;;6.13;;
36651;SDS011;53334;51.976;20.144;2023-01-19T05:27:19;15.10;;;6.85;;
36651;SDS011;53334;51.976;20.144;2023-01-19T05:29:53;18.98;;;6.55;;
36651;SDS011;53334;51.976;20.144;2023-01-19T05:32:27;14.25;;;6.25;;
36651;SDS011;53334;51.976;20.144;2023-01-19T05:35:00;14.93;;;7.10;;
36651;SDS011;53334;51.976;20.144;2023-01-19T05:37:34;23.35;;;7.15;;
36651;SDS011;53334;51.976;20.144;2023-01-19T05:40:08;17.23;;;6.13;;
36651;SDS011;53334;51.976;20.144;2023-01-19T05:42:42;14.40;;;7.05;;
36651;SDS011;53334;51.976;20.144;2023-01-19T05:45:15;13.70;;;6.68;;
36651;SDS011;53334;51.976;20.144;2023-01-19T05:47:50;11.15;;;6.97;;
36651;SDS011;53334;51.976;20.144;2023-01-19T05:50:25;12.10;;;6.18;;
36651;SDS011;53334;51.976;20.144;2023-01-19T05:52:58;12.05;;;6.82;;
36651;SDS011;53334;51.976;20.144;2023-01-19T05:55:32;11.27;;;6.25;;
36651;SDS011;53334;51.976;20.144;2023-01-19T05:58:06;9.52;;;6.43;;
36651;SDS011;53334;51.976;20.144;2023-01-19T06:00:39;15.52;;;5.85;;
36651;SDS011;53334;51.976;20.144;2023-01-19T06:03:14;13.18;;;6.20;;
36651;SDS011;53334;51.976;20.144;2023-01-19T06:05:47;9.73;;;5.45;;
36651;SDS011;53334;51.976;20.144;2023-01-19T06:08:20;21.80;;;6.63;;
36651;SDS011;53334;51.976;20.144;2023-01-19T06:10:54;14.70;;;7.05;;
36651;SDS011;53334;51.976;20.144;2023-01-19T06:13:27;13.73;;;6.65;;
36651;SDS011;53334;51.976;20.144;2023-01-19T06:16:01;12.27;;;6.32;;
36651;SDS011;53334;51.976;20.144;2023-01-19T06:18:36;12.13;;;6.72;;
36651;SDS011;53334;51.976;20.144;2023-01-19T06:21:09;11.13;;;6.10;;
36651;SDS011;53334;51.976;20.144;2023-01-19T06:23:44;14.02;;;6.93;;
36651;SDS011;53334;51.976;20.144;2023-01-19T06:26:18;17.85;;;7.03;;
36651;SDS011;53334;51.976;20.144;2023-01-19T06:28:51;13.77;;;7.22;;
36651;SDS011;53334;51.976;20.144;2023-01-19T06:31:25;12.50;;;6.93;;
36651;SDS011;53334;51.976;20.144;2023-01-19T06:33:59;12.82;;;6.38;;
36651;SDS011;53334;51.976;20.144;2023-01-19T06:36:33;14.13;;;7.20;;
36651;SDS011;53334;51.976;20.144;2023-01-19T06:39:07;21.90;;;7.20;;
36651;SDS011;53334;51.976;20.144;2023-01-19T06:41:41;15.85;;;7.00;;
36651;SDS011;53334;51.976;20.144;2023-01-19T06:44:14;17.45;;;6.65;;
36651;SDS011;53334;51.976;20.144;2023-01-19T06:46:47;16.17;;;6.95;;
36651;SDS011;53334;51.976;20.144;2023-01-19T06:49:22;14.02;;;7.07;;
36651;SDS011;53334;51.976;20.144;2023-01-19T06:51:56;14.00;;;6.78;;
36651;SDS011;53334;51.976;20.144;2023-01-19T06:54:30;17.20;;;6.63;;
36651;SDS011;53334;51.976;20.144;2023-01-19T06:57:03;11.65;;;6.72;;
36651;SDS011;53334;51.976;20.144;2023-01-19T06:59:36;17.30;;;7.05;;
36651;SDS011;53334;51.976;20.144;2023-01-19T07:02:10;15.52;;;7.63;;
36651;SDS011;53334;51.976;20.144;2023-01-19T07:05:00;16.23;;;6.93;;
36651;SDS011;53334;51.976;20.144;2023-01-19T07:07:33;11.63;;;7.00;;
36651;SDS011;53334;51.976;20.144;2023-01-19T07:12:42;13.25;;;6.65;;
36651;SDS011;53334;51.976;20.144;2023-01-19T07:15:18;16.17;;;7.10;;
36651;SDS011;53334;51.976;20.144;2023-01-19T07:17:56;13.10;;;7.13;;
36651;SDS011;53334;51.976;20.144;2023-01-19T07:20:31;11.80;;;6.38;;
36651;SDS011;53334;51.976;20.144;2023-01-19T07:23:05;13.23;;;7.10;;
36651;SDS011;53334;51.976;20.144;2023-01-19T07:25:38;13.88;;;6.68;;
36651;SDS011;53334;51.976;20.144;2023-01-19T07:28:11;19.67;;;6.85;;
36651;SDS011;53334;51.976;20.144;2023-01-19T07:30:49;22.95;;;8.38;;
36651;SDS011;53334;51.976;20.144;2023-01-19T07:33:23;13.07;;;7.97;;
36651;SDS011;53334;51.976;20.144;2023-01-19T07:35:58;17.00;;;7.57;;
36651;SDS011;53334;51.976;20.144;2023-01-19T07:38:56;16.55;;;6.72;;
36651;SDS011;53334;51.976;20.144;2023-01-19T07:41:29;15.10;;;7.15;;
36651;SDS011;53334;51.976;20.144;2023-01-19T07:44:03;13.15;;;6.47;;
36651;SDS011;53334;51.976;20.144;2023-01-19T07:49:10;13.38;;;7.30;;
36651;SDS011;53334;51.976;20.144;2023-01-19T07:51:45;16.52;;;7.57;;
36651;SDS011;53334;51.976;20.144;2023-01-19T07:54:19;32.67;;;19.90;;
36651;SDS011;53334;51.976;20.144;2023-01-19T07:56:52;49.42;;;33.55;;
36651;SDS011;53334;51.976;20.144;2023-01-19T07:59:26;44.60;;;33.28;;
36651;SDS011;53334;51.976;20.144;2023-01-19T08:02:00;51.35;;;35.35;;
36651;SDS011;53334;51.976;20.144;2023-01-19T08:04:34;48.55;;;35.85;;
36651;SDS011;53334;51.976;20.144;2023-01-19T08:07:09;50.47;;;36.38;;
36651;SDS011;53334;51.976;20.144;2023-01-19T08:09:42;43.05;;;32.55;;
36651;SDS011;53334;51.976;20.144;2023-01-19T08:12:16;40.67;;;28.67;;
36651;SDS011;53334;51.976;20.144;2023-01-19T08:14:49;37.55;;;27.77;;
36651;SDS011;53334;51.976;20.144;2023-01-19T08:17:22;37.03;;;27.17;;
36651;SDS011;53334;51.976;20.144;2023-01-19T08:19:56;33.90;;;25.30;;
36651;SDS011;53334;51.976;20.144;2023-01-19T08:25:04;31.17;;;21.05;;
36651;SDS011;53334;51.976;20.144;2023-01-19T08:27:38;35.35;;;24.15;;
36651;SDS011;53334;51.976;20.144;2023-01-19T08:30:11;27.25;;;20.88;;
36651;SDS011;53334;51.976;20.144;2023-01-19T08:32:45;26.30;;;20.13;;
36651;SDS011;53334;51.976;20.144;2023-01-19T08:35:18;32.92;;;21.30;;
36651;SDS011;53334;51.976;20.144;2023-01-19T08:37:54;27.15;;;20.20;;
36651;SDS011;53334;51.976;20.144;2023-01-19T08:40:32;26.20;;;19.33;;
36651;SDS011;53334;51.976;20.144;2023-01-19T08:43:07;29.52;;;18.70;;
36651;SDS011;53334;51.976;20.144;2023-01-19T08:45:43;23.10;;;16.85;;
36651;SDS011;53334;51.976;20.144;2023-01-19T08:48:19;23.50;;;16.25;;
36651;SDS011;53334;51.976;20.144;2023-01-19T08:50:54;20.95;;;16.50;;
36651;SDS011;53334;51.976;20.144;2023-01-19T08:53:28;19.80;;;16.20;;
36651;SDS011;53334;51.976;20.144;2023-01-19T08:56:02;18.50;;;14.90;;
36651;SDS011;53334;51.976;20.144;2023-01-19T08:58:36;20.30;;;15.23;;
36651;SDS011;53334;51.976;20.144;2023-01-19T09:01:10;21.50;;;15.27;;
36651;SDS011;53334;51.976;20.144;2023-01-19T09:03:47;18.35;;;13.82;;
36651;SDS011;53334;51.976;20.144;2023-01-19T09:06:21;20.10;;;15.48;;
36651;SDS011;53334;51.976;20.144;2023-01-19T09:08:57;16.00;;;13.75;;
36651;SDS011;53334;51.976;20.144;2023-01-19T09:11:30;19.00;;;14.48;;
36651;SDS011;53334;51.976;20.144;2023-01-19T09:14:05;17.15;;;13.75;;
36651;SDS011;53334;51.976;20.144;2023-01-19T09:16:38;18.17;;;12.75;;
36651;SDS011;53334;51.976;20.144;2023-01-19T09:19:12;16.70;;;13.70;;
36651;SDS011;53334;51.976;20.144;2023-01-19T09:21:45;15.55;;;12.18;;
36651;SDS011;53334;51.976;20.144;2023-01-19T09:24:20;15.98;;;13.00;;
36651;SDS011;53334;51.976;20.144;2023-01-19T09:26:53;21.25;;;13.85;;
36651;SDS011;53334;51.976;20.144;2023-01-19T09:29:27;18.33;;;11.50;;
36651;SDS011;53334;51.976;20.144;2023-01-19T09:32:00;18.92;;;13.02;;
36651;SDS011;53334;51.976;20.144;2023-01-19T09:34:33;17.17;;;12.98;;
36651;SDS011;53334;51.976;20.144;2023-01-19T09:37:07;18.30;;;12.10;;
36651;SDS011;53334;51.976;20.144;2023-01-19T09:39:41;15.77;;;11.48;;
36651;SDS011;53334;51.976;20.144;2023-01-19T09:42:17;15.48;;;12.15;;
36651;SDS011;53334;51.976;20.144;2023-01-19T09:44:55;15.55;;;11.85;;
36651;SDS011;53334;51.976;20.144;2023-01-19T09:47:28;16.13;;;11.95;;
36651;SDS011;53334;51.976;20.144;2023-01-19T09:50:03;14.48;;;11.40;;
36651;SDS011;53334;51.976;20.144;2023-01-19T09:52:42;17.15;;;12.55;;
36651;SDS011;53334;51.976;20.144;2023-01-19T09:55:26;14.15;;;10.73;;
36651;SDS011;53334;51.976;20.144;2023-01-19T09:58:00;15.43;;;11.88;;
36651;SDS011;53334;51.976;20.144;2023-01-19T10:00:35;15.70;;;11.63;;
36651;SDS011;53334;51.976;20.144;2023-01-19T10:03:11;14.15;;;10.70;;
36651;SDS011;53334;51.976;20.144;2023-01-19T10:05:48;14.25;;;11.18;;
36651;SDS011;53334;51.976;20.144;2023-01-19T10:08:27;15.05;;;11.48;;
36651;SDS011;53334;51.976;20.144;2023-01-19T10:11:16;13.88;;;11.50;;
36651;SDS011;53334;51.976;20.144;2023-01-19T10:14:18;16.35;;;11.13;;
36651;SDS011;53334;51.976;20.144;2023-01-19T10:16:58;14.95;;;11.27;;
36651;SDS011;53334;51.976;20.144;2023-01-19T10:19:39;12.48;;;9.73;;
36651;SDS011;53334;51.976;20.144;2023-01-19T10:22:18;13.27;;;10.57;;
36651;SDS011;53334;51.976;20.144;2023-01-19T10:24:53;16.33;;;11.85;;
36651;SDS011;53334;51.976;20.144;2023-01-19T10:27:30;15.52;;;11.32;;
36651;SDS011;53334;51.976;20.144;2023-01-19T10:30:07;14.57;;;10.02;;
36651;SDS011;53334;51.976;20.144;2023-01-19T10:32:47;12.73;;;9.95;;
36651;SDS011;53334;51.976;20.144;2023-01-19T10:35:21;13.00;;;9.45;;
36651;SDS011;53334;51.976;20.144;2023-01-19T10:37:57;17.15;;;10.75;;
36651;SDS011;53334;51.976;20.144;2023-01-19T10:40:34;14.27;;;10.75;;
36651;SDS011;53334;51.976;20.144;2023-01-19T10:46:16;17.30;;;10.35;;
36651;SDS011;53334;51.976;20.144;2023-01-19T10:48:54;15.10;;;10.05;;
36651;SDS011;53334;51.976;20.144;2023-01-19T10:51:28;12.73;;;10.02;;
36651;SDS011;53334;51.976;20.144;2023-01-19T10:54:02;12.15;;;9.50;;
36651;SDS011;53334;51.976;20.144;2023-01-19T10:56:37;12.88;;;10.02;;
36651;SDS011;53334;51.976;20.144;2023-01-19T11:02:11;13.13;;;9.30;;
36651;SDS011;53334;51.976;20.144;2023-01-19T11:04:50;15.20;;;9.43;;
36651;SDS011;53334;51.976;20.144;2023-01-19T11:07:27;15.65;;;9.82;;
36651;SDS011;53334;51.976;20.144;2023-01-19T11:10:15;14.55;;;9.52;;
36651;SDS011;53334;51.976;20.144;2023-01-19T11:12:57;12.80;;;8.75;;
36651;SDS011;53334;51.976;20.144;2023-01-19T11:15:39;12.45;;;9.07;;
36651;SDS011;53334;51.976;20.144;2023-01-19T11:18:21;17.52;;;10.07;;
36651;SDS011;53334;51.976;20.144;2023-01-19T11:20:58;17.05;;;9.95;;
36651;SDS011;53334;51.976;20.144;2023-01-19T11:23:33;17.10;;;9.73;;
36651;SDS011;53334;51.976;20.144;2023-01-19T11:26:14;16.30;;;9.90;;
36651;SDS011;53334;51.976;20.144;2023-01-19T11:28:56;13.73;;;10.02;;
36651;SDS011;53334;51.976;20.144;2023-01-19T11:31:33;11.95;;;9.90;;
36651;SDS011;53334;51.976;20.144;2023-01-19T11:34:21;10.38;;;8.85;;
36651;SDS011;53334;51.976;20.144;2023-01-19T11:36:57;11.48;;;8.85;;
36651;SDS011;53334;51.976;20.144;2023-01-19T11:39:43;12.50;;;9.27;;
36651;SDS011;53334;51.976;20.144;2023-01-19T11:42:18;13.93;;;7.93;;
36651;SDS011;53334;51.976;20.144;2023-01-19T11:47:31;11.25;;;9.20;;
36651;SDS011;53334;51.976;20.144;2023-01-19T11:50:13;13.20;;;10.65;;
36651;SDS011;53334;51.976;20.144;2023-01-19T11:52:54;12.50;;;8.98;;
36651;SDS011;53334;51.976;20.144;2023-01-19T11:55:34;13.70;;;10.63;;
36651;SDS011;53334;51.976;20.144;2023-01-19T11:58:11;16.67;;;12.48;;
36651;SDS011;53334;51.976;20.144;2023-01-19T12:00:47;17.08;;;12.20;;
36651;SDS011;53334;51.976;20.144;2023-01-19T12:03:26;19.85;;;14.10;;
36651;SDS011;53334;51.976;20.144;2023-01-19T12:06:03;17.75;;;12.80;;
36651;SDS011;53334;51.976;20.144;2023-01-19T12:08:42;19.42;;;14.63;;
36651;SDS011;53334;51.976;20.144;2023-01-19T12:11:21;20.85;;;14.63;;
36651;SDS011;53334;51.976;20.144;2023-01-19T12:13:58;19.27;;;14.90;;
36651;SDS011;53334;51.976;20.144;2023-01-19T12:16:32;18.27;;;14.52;;
36651;SDS011;53334;51.976;20.144;2023-01-19T12:19:12;22.48;;;14.82;;
36651;SDS011;53334;51.976;20.144;2023-01-19T12:21:49;20.58;;;16.20;;
36651;SDS011;53334;51.976;20.144;2023-01-19T12:24:25;20.52;;;15.32;;
36651;SDS011;53334;51.976;20.144;2023-01-19T12:27:04;20.45;;;14.63;;
36651;SDS011;53334;51.976;20.144;2023-01-19T12:29:46;20.60;;;16.35;;
36651;SDS011;53334;51.976;20.144;2023-01-19T12:32:30;21.85;;;15.40;;
36651;SDS011;53334;51.976;20.144;2023-01-19T12:35:09;28.25;;;16.38;;
36651;SDS011;53334;51.976;20.144;2023-01-19T12:38:32;20.75;;;14.20;;
36651;SDS011;53334;51.976;20.144;2023-01-19T12:41:20;20.10;;;14.60;;
36651;SDS011;53334;51.976;20.144;2023-01-19T12:46:53;20.50;;;15.77;;
36651;SDS011;53334;51.976;20.144;2023-01-19T12:49:28;20.55;;;16.80;;
36651;SDS011;53334;51.976;20.144;2023-01-19T12:52:20;42.63;;;30.90;;
36651;SDS011;53334;51.976;20.144;2023-01-19T12:54:59;26.83;;;20.50;;
36651;SDS011;53334;51.976;20.144;2023-01-19T12:57:39;32.10;;;24.83;;
36651;SDS011;53334;51.976;20.144;2023-01-19T13:00:27;34.17;;;25.17;;
36651;SDS011;53334;51.976;20.144;2023-01-19T13:06:17;36.97;;;28.30;;
36651;SDS011;53334;51.976;20.144;2023-01-19T13:09:01;36.25;;;28.67;;
36651;SDS011;53334;51.976;20.144;2023-01-19T13:14:35;30.02;;;23.38;;
36651;SDS011;53334;51.976;20.144;2023-01-19T13:17:15;27.77;;;22.50;;
36651;SDS011;53334;51.976;20.144;2023-01-19T13:20:17;31.10;;;24.30;;
36651;SDS011;53334;51.976;20.144;2023-01-19T13:25:57;27.83;;;22.67;;
36651;SDS011;53334;51.976;20.144;2023-01-19T13:28:35;26.27;;;20.23;;
36651;SDS011;53334;51.976;20.144;2023-01-19T13:31:12;23.45;;;18.50;;
36651;SDS011;53334;51.976;20.144;2023-01-19T13:33:47;26.35;;;20.33;;
36651;SDS011;53334;51.976;20.144;2023-01-19T13:36:25;24.10;;;19.73;;
36651;SDS011;53334;51.976;20.144;2023-01-19T13:39:02;20.92;;;16.50;;
36651;SDS011;53334;51.976;20.144;2023-01-19T13:41:39;19.42;;;16.00;;
36651;SDS011;53334;51.976;20.144;2023-01-19T13:44:15;23.27;;;16.75;;
36651;SDS011;53334;51.976;20.144;2023-01-19T13:46:54;19.52;;;16.25;;
36651;SDS011;53334;51.976;20.144;2023-01-19T13:49:31;21.17;;;15.98;;
36651;SDS011;53334;51.976;20.144;2023-01-19T13:52:10;18.90;;;15.93;;
36651;SDS011;53334;51.976;20.144;2023-01-19T13:54:48;17.30;;;14.48;;
36651;SDS011;53334;51.976;20.144;2023-01-19T13:57:26;17.48;;;14.90;;
36651;SDS011;53334;51.976;20.144;2023-01-19T14:00:04;18.90;;;14.55;;
36651;SDS011;53334;51.976;20.144;2023-01-19T14:02:50;17.38;;;13.57;;
36651;SDS011;53334;51.976;20.144;2023-01-19T14:05:27;14.73;;;13.02;;
36651;SDS011;53334;51.976;20.144;2023-01-19T14:08:02;16.02;;;13.73;;
36651;SDS011;53334;51.976;20.144;2023-01-19T14:10:38;16.75;;;13.70;;
36651;SDS011;53334;51.976;20.144;2023-01-19T14:13:16;18.58;;;13.85;;
36651;SDS011;53334;51.976;20.144;2023-01-19T14:15:51;17.58;;;13.90;;
36651;SDS011;53334;51.976;20.144;2023-01-19T14:18:27;18.17;;;14.32;;
36651;SDS011;53334;51.976;20.144;2023-01-19T14:21:02;18.33;;;14.68;;
36651;SDS011;53334;51.976;20.144;2023-01-19T14:23:42;18.15;;;13.75;;
36651;SDS011;53334;51.976;20.144;2023-01-19T14:29:25;18.90;;;14.75;;
36651;SDS011;53334;51.976;20.144;2023-01-19T14:32:04;18.65;;;14.65;;
36651;SDS011;53334;51.976;20.144;2023-01-19T14:34:43;20.98;;;14.73;;
36651;SDS011;53334;51.976;20.144;2023-01-19T14:37:22;18.77;;;14.80;;
36651;SDS011;53334;51.976;20.144;2023-01-19T14:39:58;24.52;;;15.40;;
36651;SDS011;53334;51.976;20.144;2023-01-19T14:42:36;23.35;;;18.00;;
36651;SDS011;53334;51.976;20.144;2023-01-19T14:45:19;19.42;;;14.80;;
36651;SDS011;53334;51.976;20.144;2023-01-19T14:47:55;18.20;;;14.80;;
36651;SDS011;53334;51.976;20.144;2023-01-19T14:50:31;16.77;;;13.38;;
36651;SDS011;53334;51.976;20.144;2023-01-19T14:53:07;17.05;;;14.30;;
36651;SDS011;53334;51.976;20.144;2023-01-19T14:55:48;17.02;;;13.52;;
36651;SDS011;53334;51.976;20.144;2023-01-19T14:58:23;16.23;;;12.80;;
36651;SDS011;53334;51.976;20.144;2023-01-19T15:01:00;17.05;;;13.27;;
36651;SDS011;53334;51.976;20.144;2023-01-19T15:03:34;14.40;;;12.18;;
36651;SDS011;53334;51.976;20.144;2023-01-19T15:06:16;17.95;;;13.68;;
36651;SDS011;53334;51.976;20.144;2023-01-19T15:08:52;16.95;;;13.48;;
36651;SDS011;53334;51.976;20.144;2023-01-19T15:11:28;19.35;;;14.65;;
36651;SDS011;53334;51.976;20.144;2023-01-19T15:14:03;16.70;;;12.27;;
36651;SDS011;53334;51.976;20.144;2023-01-19T15:16:38;16.42;;;12.95;;
36651;SDS011;53334;51.976;20.144;2023-01-19T15:19:12;19.08;;;13.15;;
36651;SDS011;53334;51.976;20.144;2023-01-19T15:21:47;18.45;;;12.98;;
36651;SDS011;53334;51.976;20.144;2023-01-19T15:24:20;22.00;;;12.57;;
36651;SDS011;53334;51.976;20.144;2023-01-19T15:26:54;17.63;;;12.98;;
36651;SDS011;53334;51.976;20.144;2023-01-19T15:29:32;21.10;;;11.73;;
36651;SDS011;53334;51.976;20.144;2023-01-19T15:32:11;22.70;;;12.70;;
36651;SDS011;53334;51.976;20.144;2023-01-19T15:34:45;20.52;;;11.50;;
36651;SDS011;53334;51.976;20.144;2023-01-19T15:37:18;18.90;;;12.13;;
36651;SDS011;53334;51.976;20.144;2023-01-19T15:39:52;23.30;;;12.05;;
36651;SDS011;53334;51.976;20.144;2023-01-19T15:42:25;28.55;;;12.23;;
36651;SDS011;53334;51.976;20.144;2023-01-19T15:44:58;24.58;;;12.82;;
36651;SDS011;53334;51.976;20.144;2023-01-19T15:47:33;18.33;;;11.45;;
36651;SDS011;53334;51.976;20.144;2023-01-19T15:50:07;16.02;;;11.40;;
36651;SDS011;53334;51.976;20.144;2023-01-19T15:52:41;14.50;;;10.55;;